Time;durP1;ratioP1;P1;durP2;ratioP2;P2;SDS_P1;SDS_P2;PMS_P1;PMS_P2;Temp;Humidity;BMP_temperature;BMP_pressure;BME280_temperature;BME280_humidity;BME280_pressure;Samples;Min_cycle;Max_cycle;Signal;HPM_P1;HPM_P2
2022/02/21 00:00:18;;;;;;;9.15;2.03;;;5.50;94.80;;;;;;4987841;28;20089;-61
2022/02/21 00:02:46;;;;;;;10.00;1.88;;;5.40;94.70;;;;;;4992614;28;20485;-61
2022/02/21 00:05:14;;;;;;;9.55;2.08;;;5.40;94.80;;;;;;5006661;28;20092;-59
2022/02/21 00:07:41;;;;;;;15.15;2.63;;;5.40;94.80;;;;;;5002382;28;20153;-60
2022/02/21 00:10:09;;;;;;;10.68;1.65;;;5.40;94.70;;;;;;4991364;28;20129;-60
2022/02/21 00:12:36;;;;;;;11.48;1.92;;;5.40;95.00;;;;;;4995806;28;20609;-61
2022/02/21 00:15:03;;;;;;;8.40;1.60;;;5.30;95.20;;;;;;5002893;28;20077;-61
2022/02/21 00:17:30;;;;;;;24.08;2.45;;;5.30;95.30;;;;;;4998949;28;20074;-61
2022/02/21 00:19:57;;;;;;;11.55;1.95;;;5.30;95.10;;;;;;5002607;28;20157;-61
2022/02/21 00:22:26;;;;;;;16.00;3.22;;;5.40;95.30;;;;;;5004323;28;20140;-61
2022/02/21 00:24:53;;;;;;;10.15;1.73;;;5.30;95.90;;;;;;4996508;28;20281;-62
2022/02/21 00:27:20;;;;;;;12.25;2.20;;;5.30;95.80;;;;;;5003797;28;20100;-61
2022/02/21 00:29:48;;;;;;;15.15;3.03;;;5.30;96.00;;;;;;4999884;28;20050;-60
2022/02/21 00:32:15;;;;;;;14.95;3.70;;;5.30;96.50;;;;;;4995391;28;20612;-60
2022/02/21 00:34:41;;;;;;;16.30;3.58;;;5.30;96.00;;;;;;5001534;28;20052;-60
2022/02/21 00:37:08;;;;;;;17.02;3.42;;;5.30;96.50;;;;;;5010853;28;20081;-61
2022/02/21 00:39:35;;;;;;;16.02;2.50;;;5.30;96.70;;;;;;5003901;28;20129;-60
2022/02/21 00:42:03;;;;;;;22.00;3.10;;;5.30;97.00;;;;;;4992460;28;20050;-60
2022/02/21 00:44:29;;;;;;;13.00;3.63;;;5.30;97.00;;;;;;5004603;28;20125;-60
2022/02/21 00:46:56;;;;;;;13.02;2.40;;;5.30;97.20;;;;;;5009301;28;20532;-60
2022/02/21 00:49:23;;;;;;;19.30;3.78;;;5.30;96.90;;;;;;4999086;28;20081;-60
2022/02/21 00:51:50;;;;;;;12.98;2.58;;;5.30;97.40;;;;;;5012033;28;20081;-60
2022/02/21 00:54:16;;;;;;;21.33;3.58;;;5.30;96.70;;;;;;4990134;28;20046;-60
2022/02/21 00:56:43;;;;;;;15.95;2.63;;;5.30;96.70;;;;;;4993567;28;20457;-60
2022/02/21 00:59:10;;;;;;;14.50;2.83;;;5.30;96.80;;;;;;4996262;28;20093;-61
2022/02/21 01:01:37;;;;;;;12.80;2.47;;;5.40;96.40;;;;;;5008328;28;20144;-60
2022/02/21 01:04:03;;;;;;;13.77;2.33;;;5.30;95.80;;;;;;5007178;28;20076;-60
2022/02/21 01:06:30;;;;;;;9.50;2.40;;;5.40;96.40;;;;;;4997511;28;20085;-61
2022/02/21 01:08:57;;;;;;;13.13;2.45;;;5.40;96.30;;;;;;4995902;28;20512;-61
2022/02/21 01:11:24;;;;;;;16.20;2.65;;;5.40;96.60;;;;;;5003811;28;20092;-61
2022/02/21 01:13:51;;;;;;;22.25;3.65;;;5.50;96.50;;;;;;5007332;28;20108;-60
2022/02/21 01:16:18;;;;;;;12.98;2.63;;;5.40;95.90;;;;;;5001704;28;20124;-60
2022/02/21 01:18:45;;;;;;;15.27;3.08;;;5.40;96.10;;;;;;4994833;28;20065;-60
2022/02/21 01:21:11;;;;;;;12.85;2.33;;;5.40;96.20;;;;;;5000151;28;20116;-61
2022/02/21 01:23:40;;;;;;;10.82;2.28;;;5.50;96.00;;;;;;5010624;28;20149;-61
2022/02/21 01:26:06;;;;;;;16.90;4.15;;;5.60;96.00;;;;;;5006112;28;20054;-60
2022/02/21 01:28:33;;;;;;;12.13;2.53;;;5.40;96.60;;;;;;4992141;28;20592;-61
2022/02/21 01:31:00;;;;;;;7.13;2.55;;;5.40;96.10;;;;;;4986648;28;20129;-60
2022/02/21 01:33:28;;;;;;;16.42;2.30;;;5.40;96.20;;;;;;4991864;28;20081;-60
2022/02/21 01:35:56;;;;;;;24.10;2.47;;;5.50;95.90;;;;;;4996531;28;20050;-61
2022/02/21 01:38:22;;;;;;;11.57;2.15;;;5.40;96.10;;;;;;5011748;28;20073;-61
2022/02/21 01:40:50;;;;;;;14.88;2.38;;;5.30;96.40;;;;;;5006196;28;20710;-61
2022/02/21 01:43:17;;;;;;;13.45;2.40;;;5.30;96.20;;;;;;4991888;28;20042;-61
2022/02/21 01:45:44;;;;;;;12.18;2.60;;;5.40;96.40;;;;;;4995219;28;20054;-62
2022/02/21 01:48:11;;;;;;;17.38;2.70;;;5.40;96.50;;;;;;5007797;28;20077;-61
2022/02/21 01:50:38;;;;;;;17.15;2.40;;;5.30;97.00;;;;;;4659659;28;10000469;-61
2022/02/21 01:53:05;;;;;;;14.55;2.08;;;5.40;97.30;;;;;;4993793;28;20081;-61
2022/02/21 01:55:31;;;;;;;11.45;2.25;;;5.30;97.00;;;;;;4977579;28;20073;-61
2022/02/21 01:57:58;;;;;;;14.80;2.30;;;5.30;96.90;;;;;;5003099;28;20073;-61
2022/02/21 02:00:25;;;;;;;14.02;3.35;;;5.30;97.40;;;;;;4988999;28;20134;-61
2022/02/21 02:02:51;;;;;;;16.65;4.65;;;5.40;97.50;;;;;;5001034;28;20458;-61
2022/02/21 02:05:19;;;;;;;6.63;1.92;;;5.40;98.20;;;;;;4994114;28;20129;-60
2022/02/21 02:07:46;;;;;;;7.30;1.85;;;5.30;97.90;;;;;;4999770;28;20050;-61
2022/02/21 02:10:13;;;;;;;13.85;1.80;;;5.30;97.80;;;;;;5009517;28;20519;-61
2022/02/21 02:12:40;;;;;;;13.02;1.73;;;5.40;97.80;;;;;;5001999;28;20085;-61
2022/02/21 02:15:14;;;;;;;9.38;3.10;;;5.40;97.80;;;;;;4992745;28;20137;-61
2022/02/21 02:17:42;;;;;;;10.25;2.72;;;5.40;97.60;;;;;;4992345;28;20077;-61
2022/02/21 02:20:09;;;;;;;9.32;1.70;;;5.40;97.90;;;;;;4990110;28;20074;-61
2022/02/21 02:22:37;;;;;;;5.20;0.93;;;5.40;97.70;;;;;;4995950;28;20058;-61
2022/02/21 02:25:04;;;;;;;5.97;1.45;;;5.30;96.60;;;;;;5008030;28;20069;-60
2022/02/21 02:27:31;;;;;;;3.78;1.20;;;5.40;96.60;;;;;;5004816;28;20050;-61
2022/02/21 02:29:59;;;;;;;6.45;1.40;;;5.40;97.20;;;;;;4989395;28;20078;-63
2022/02/21 02:32:26;;;;;;;7.95;1.50;;;5.30;96.70;;;;;;4993271;28;20042;-61
2022/02/21 02:34:53;;;;;;;5.90;0.85;;;5.30;97.00;;;;;;5006726;28;20089;-61
2022/02/21 02:37:21;;;;;;;8.75;1.63;;;5.20;96.40;;;;;;5004753;28;20077;-60
2022/02/21 02:39:47;;;;;;;8.65;1.10;;;5.50;97.40;;;;;;4993015;28;20077;-61
2022/02/21 02:42:14;;;;;;;5.03;1.27;;;5.20;96.80;;;;;;4993255;28;20490;-61
2022/02/21 02:44:41;;;;;;;8.55;4.45;;;5.20;96.90;;;;;;5002275;28;20461;-61
2022/02/21 02:47:09;;;;;;;7.35;1.63;;;5.10;97.00;;;;;;5004536;28;20050;-61
2022/02/21 02:49:36;;;;;;;6.20;1.20;;;5.10;96.80;;;;;;4997716;28;20098;-61
2022/02/21 02:52:04;;;;;;;8.45;1.40;;;5.10;97.10;;;;;;4992840;28;20050;-61
2022/02/21 02:54:31;;;;;;;10.68;1.63;;;5.10;96.80;;;;;;4993448;28;20046;-61
2022/02/21 02:56:58;;;;;;;10.40;2.67;;;5.00;96.90;;;;;;4990276;28;20081;-61
2022/02/21 02:59:25;;;;;;;4.88;1.75;;;5.00;96.80;;;;;;4999964;28;20073;-60
2022/02/21 03:01:52;;;;;;;8.85;1.42;;;5.20;96.80;;;;;;4989477;28;20549;-60
2022/02/21 03:04:19;;;;;;;6.18;1.38;;;5.00;96.90;;;;;;4997517;28;20096;-60
2022/02/21 03:06:46;;;;;;;6.13;1.10;;;5.00;96.50;;;;;;5008660;28;20062;-60
2022/02/21 03:09:12;;;;;;;7.85;1.60;;;5.00;96.40;;;;;;5001891;28;20532;-60
2022/02/21 03:11:39;;;;;;;8.38;1.13;;;5.00;96.90;;;;;;4989270;28;20232;-60
2022/02/21 03:14:06;;;;;;;9.45;1.63;;;5.00;96.40;;;;;;4988738;28;20567;-60
2022/02/21 03:16:33;;;;;;;5.28;1.10;;;4.90;96.20;;;;;;5007465;28;20058;-60
2022/02/21 03:19:00;;;;;;;5.95;1.30;;;4.90;96.30;;;;;;4996585;28;20046;-60
2022/02/21 03:21:27;;;;;;;7.28;1.42;;;4.90;96.20;;;;;;4997373;28;20101;-61
2022/02/21 03:23:53;;;;;;;17.50;1.65;;;4.80;96.40;;;;;;4991645;28;20050;-60
2022/02/21 03:26:20;;;;;;;3.78;1.50;;;5.00;96.50;;;;;;4998967;28;20104;-60
2022/02/21 03:28:47;;;;;;;7.47;1.35;;;4.90;96.20;;;;;;5001918;28;20080;-60
2022/02/21 03:31:14;;;;;;;13.05;2.45;;;4.90;96.10;;;;;;5001958;28;20077;-60
2022/02/21 03:33:41;;;;;;;9.23;1.23;;;4.90;96.20;;;;;;4986083;28;20042;-60
2022/02/21 03:36:08;;;;;;;10.02;1.80;;;4.90;96.30;;;;;;4996760;28;20130;-61
2022/02/21 03:38:34;;;;;;;7.15;1.50;;;4.80;96.20;;;;;;4992277;28;20073;-60
2022/02/21 03:41:01;;;;;;;6.20;1.33;;;4.80;96.00;;;;;;4997442;28;20077;-60
2022/02/21 03:43:28;;;;;;;11.07;2.42;;;4.90;96.00;;;;;;5006226;28;20046;-60
2022/02/21 03:45:55;;;;;;;8.02;1.40;;;4.90;95.70;;;;;;4999009;28;20050;-61
2022/02/21 03:48:21;;;;;;;4.97;1.02;;;4.90;96.10;;;;;;4989683;28;20081;-60
2022/02/21 03:50:48;;;;;;;7.00;1.38;;;4.80;96.00;;;;;;4979942;28;20108;-60
2022/02/21 03:53:15;;;;;;;5.40;1.15;;;4.80;95.90;;;;;;5008768;28;20112;-61
2022/02/21 03:55:42;;;;;;;6.97;1.52;;;4.80;96.00;;;;;;5002079;28;20501;-60
2022/02/21 03:58:08;;;;;;;14.80;1.73;;;4.80;96.00;;;;;;4989070;28;20105;-60
2022/02/21 04:00:35;;;;;;;8.98;1.27;;;4.90;96.40;;;;;;4993498;28;20078;-60
2022/02/21 04:03:02;;;;;;;10.60;1.10;;;4.80;96.80;;;;;;5022419;28;20115;-60
2022/02/21 04:05:29;;;;;;;5.72;1.50;;;4.80;96.80;;;;;;4987741;28;20074;-59
2022/02/21 04:07:56;;;;;;;11.32;2.55;;;4.80;96.50;;;;;;5010490;28;20623;-60
2022/02/21 04:10:22;;;;;;;8.50;2.70;;;4.80;96.50;;;;;;5005314;28;20112;-60
2022/02/21 04:12:49;;;;;;;5.32;1.42;;;4.70;96.80;;;;;;5008715;28;20127;-60
2022/02/21 04:15:16;;;;;;;7.97;1.90;;;4.80;96.90;;;;;;5007884;28;20496;-60
2022/02/21 04:17:48;;;;;;;5.50;1.20;;;4.70;97.20;;;;;;5012355;28;20523;-60
2022/02/21 04:20:17;;;;;;;7.85;1.58;;;4.80;96.90;;;;;;4992655;28;20065;-60
2022/02/21 04:22:44;;;;;;;13.38;1.65;;;4.80;97.00;;;;;;5004797;28;20070;-60
2022/02/21 04:25:11;;;;;;;11.35;1.98;;;4.80;97.10;;;;;;5011676;28;20074;-60
2022/02/21 04:27:51;;;;;;;18.90;2.03;;;4.80;97.20;;;;;;5012377;28;20077;-61
2022/02/21 04:30:20;;;;;;;8.43;1.70;;;4.80;97.30;;;;;;5008082;28;20811;-60
2022/02/21 04:32:47;;;;;;;11.85;2.22;;;4.80;97.50;;;;;;5012872;28;20081;-60
2022/02/21 04:35:15;;;;;;;9.48;2.78;;;4.80;97.60;;;;;;5009747;28;20128;-61
2022/02/21 04:37:42;;;;;;;5.90;1.83;;;4.80;97.70;;;;;;5003865;28;20062;-61
2022/02/21 04:40:11;;;;;;;20.17;3.38;;;4.80;97.70;;;;;;4992883;28;20046;-61
2022/02/21 04:42:38;;;;;;;9.73;1.95;;;4.90;97.80;;;;;;5001294;28;20513;-61
2022/02/21 04:45:06;;;;;;;10.30;2.10;;;4.90;97.90;;;;;;5011618;28;20046;-60
2022/02/21 04:47:33;;;;;;;11.38;1.40;;;4.90;97.80;;;;;;5005138;28;20073;-61
2022/02/21 04:49:59;;;;;;;9.75;2.10;;;4.90;97.80;;;;;;4992542;28;20098;-60
2022/02/21 04:52:26;;;;;;;12.90;2.25;;;4.90;97.90;;;;;;4997772;28;20461;-61
2022/02/21 04:54:53;;;;;;;18.02;3.30;;;4.90;97.80;;;;;;4994956;28;20512;-61
2022/02/21 04:57:20;;;;;;;20.38;3.90;;;5.00;97.90;;;;;;4990849;28;20054;-60
2022/02/21 04:59:46;;;;;;;16.92;2.28;;;5.00;97.80;;;;;;4993561;28;20074;-60
2022/02/21 05:02:13;;;;;;;20.55;2.58;;;5.00;98.00;;;;;;5000732;28;20073;-61
2022/02/21 05:04:40;;;;;;;11.75;2.28;;;5.00;97.90;;;;;;4996030;28;20074;-61
2022/02/21 05:07:13;;;;;;;12.25;1.73;;;5.00;97.90;;;;;;4999113;28;20050;-60
2022/02/21 05:09:41;;;;;;;20.35;4.50;;;5.00;98.00;;;;;;4997372;28;20497;-61
2022/02/21 05:12:08;;;;;;;12.20;1.95;;;5.10;98.00;;;;;;4979883;28;20080;-60
2022/02/21 05:14:34;;;;;;;17.35;3.10;;;5.00;98.00;;;;;;5002771;28;20096;-61
2022/02/21 05:17:01;;;;;;;16.20;2.60;;;5.00;98.10;;;;;;5007320;28;20050;-60
2022/02/21 05:19:28;;;;;;;14.40;2.42;;;5.00;97.90;;;;;;4986307;28;20096;-60
2022/02/21 05:21:55;;;;;;;18.13;2.30;;;5.10;97.90;;;;;;5010509;28;20077;-60
2022/02/21 05:24:22;;;;;;;12.63;2.47;;;5.10;97.70;;;;;;5001656;28;20065;-60
2022/02/21 05:26:49;;;;;;;11.88;2.33;;;5.10;97.90;;;;;;5010888;28;20050;-61
2022/02/21 05:29:16;;;;;;;19.52;2.30;;;5.10;98.00;;;;;;5001434;28;20069;-60
2022/02/21 05:31:43;;;;;;;18.98;2.90;;;5.10;97.70;;;;;;5012397;28;20493;-60
2022/02/21 05:34:09;;;;;;;13.02;2.08;;;5.10;97.50;;;;;;5004200;28;20046;-61
2022/02/21 05:36:36;;;;;;;10.68;2.03;;;5.10;97.70;;;;;;4992069;28;20138;-60
2022/02/21 05:39:03;;;;;;;9.75;2.78;;;5.10;97.70;;;;;;5003456;28;20096;-60
2022/02/21 05:41:30;;;;;;;22.83;5.85;;;5.20;97.50;;;;;;4974808;28;20054;-60
2022/02/21 05:44:00;;;;;;;17.52;2.33;;;5.20;97.10;;;;;;4994810;28;20561;-61
2022/02/21 05:46:27;;;;;;;13.60;2.65;;;5.40;97.20;;;;;;5011239;28;20058;-61
2022/02/21 05:48:54;;;;;;;13.25;2.17;;;5.30;96.80;;;;;;4983773;28;20047;-60
2022/02/21 05:51:21;;;;;;;12.98;1.50;;;5.40;96.70;;;;;;5008798;28;20090;-60
2022/02/21 05:53:48;;;;;;;12.02;2.60;;;5.40;96.80;;;;;;5005672;28;20077;-60
2022/02/21 05:56:15;;;;;;;15.98;3.10;;;5.40;96.90;;;;;;4979194;28;20069;-60
2022/02/21 05:58:42;;;;;;;13.30;2.42;;;5.40;96.60;;;;;;4996713;28;20084;-60
2022/02/21 06:01:09;;;;;;;17.50;3.55;;;5.40;96.70;;;;;;4998245;28;20042;-61
2022/02/21 06:03:41;;;;;;;18.73;2.75;;;5.50;96.60;;;;;;4995153;28;20089;-61
2022/02/21 06:06:08;;;;;;;13.20;2.42;;;5.50;96.90;;;;;;4999602;28;20054;-60
2022/02/21 06:08:34;;;;;;;18.92;2.88;;;5.50;97.10;;;;;;5001128;28;20109;-60
2022/02/21 06:11:01;;;;;;;14.05;2.10;;;5.50;96.90;;;;;;5001175;28;20116;-61
2022/02/21 06:13:28;;;;;;;16.75;3.22;;;5.50;96.70;;;;;;5009716;28;20065;-60
2022/02/21 06:15:55;;;;;;;13.25;3.25;;;5.50;96.90;;;;;;5003892;28;20090;-61
2022/02/21 06:18:21;;;;;;;17.42;3.17;;;5.60;96.70;;;;;;4992388;28;20042;-60
2022/02/21 06:20:48;;;;;;;17.45;2.80;;;5.60;96.90;;;;;;4985675;28;20104;-61
2022/02/21 06:23:15;;;;;;;15.13;2.92;;;5.60;96.80;;;;;;4992535;28;20441;-60
2022/02/21 06:25:42;;;;;;;18.90;3.53;;;5.60;96.90;;;;;;5004756;28;20046;-60
2022/02/21 06:28:10;;;;;;;13.40;2.33;;;5.60;96.90;;;;;;4993772;28;20049;-61
2022/02/21 06:30:36;;;;;;;18.23;3.08;;;5.60;96.90;;;;;;5005643;28;20057;-59
2022/02/21 06:33:03;;;;;;;15.18;3.05;;;5.70;96.90;;;;;;4993294;28;20077;-61
2022/02/21 06:35:30;;;;;;;13.75;2.83;;;5.70;96.90;;;;;;4999113;28;20100;-61
2022/02/21 06:37:59;;;;;;;26.08;4.15;;;5.70;97.00;;;;;;4997164;28;20501;-61
2022/02/21 06:40:27;;;;;;;14.32;2.85;;;5.80;96.70;;;;;;4999741;28;20042;-61
2022/02/21 06:42:54;;;;;;;24.35;3.25;;;5.80;96.80;;;;;;4993782;28;20117;-61
2022/02/21 06:45:21;;;;;;;21.48;5.85;;;5.90;96.90;;;;;;4998377;28;20551;-60
2022/02/21 06:47:51;;;;;;;12.77;2.35;;;5.90;97.00;;;;;;5004538;28;20049;-61
2022/02/21 06:50:21;;;;;;;14.25;3.70;;;6.00;96.70;;;;;;5005013;28;20512;-61
2022/02/21 06:52:47;;;;;;;19.77;5.13;;;6.00;96.70;;;;;;5005255;28;20456;-61
2022/02/21 06:55:14;;;;;;;24.33;4.38;;;6.00;97.00;;;;;;5007100;28;20559;-61
2022/02/21 06:57:42;;;;;;;24.50;4.00;;;6.00;97.00;;;;;;5000452;28;20053;-60
2022/02/21 07:00:09;;;;;;;18.35;3.97;;;6.10;97.30;;;;;;4990581;28;20074;-61
2022/02/21 07:02:36;;;;;;;21.58;3.90;;;6.20;96.80;;;;;;4998731;28;20059;-61
2022/02/21 07:05:03;;;;;;;27.33;3.17;;;6.20;97.00;;;;;;5007988;28;20054;-61
2022/02/21 07:07:31;;;;;;;18.33;4.05;;;6.30;96.70;;;;;;4998883;28;20108;-62
2022/02/21 07:09:58;;;;;;;18.30;3.42;;;6.30;96.70;;;;;;4991677;28;20052;-63
2022/02/21 07:12:24;;;;;;;30.23;4.22;;;6.40;96.60;;;;;;5002113;28;20046;-62
2022/02/21 07:14:51;;;;;;;24.83;5.07;;;6.40;96.70;;;;;;5000508;28;20053;-62
2022/02/21 07:17:18;;;;;;;22.10;3.65;;;6.50;96.60;;;;;;5003499;28;20045;-63
2022/02/21 07:19:46;;;;;;;20.40;4.55;;;6.60;96.30;;;;;;4990264;28;20058;-62
2022/02/21 07:22:13;;;;;;;29.02;5.03;;;6.60;96.60;;;;;;5000496;28;20080;-62
2022/02/21 07:24:39;;;;;;;28.15;4.90;;;6.60;96.70;;;;;;4652480;28;9999950;-61
2022/02/21 07:27:06;;;;;;;32.50;5.07;;;6.70;96.90;;;;;;4995407;28;20141;-61
2022/02/21 07:29:33;;;;;;;29.17;4.57;;;6.70;96.80;;;;;;4989605;28;20092;-61
2022/02/21 07:32:00;;;;;;;27.60;4.95;;;6.70;96.80;;;;;;4992330;28;20093;-62
2022/02/21 07:34:27;;;;;;;22.63;4.93;;;6.70;97.00;;;;;;5001208;28;20058;-62
2022/02/21 07:36:54;;;;;;;23.17;4.57;;;6.80;97.00;;;;;;4997859;28;20116;-64
2022/02/21 07:39:23;;;;;;;20.85;4.60;;;6.80;96.80;;;;;;4998191;28;20050;-62
2022/02/21 07:41:50;;;;;;;32.85;4.47;;;6.90;97.00;;;;;;4995357;28;20060;-63
2022/02/21 07:44:17;;;;;;;33.20;5.65;;;6.90;96.90;;;;;;4995055;28;20073;-63
2022/02/21 07:46:44;;;;;;;32.97;5.68;;;7.00;96.90;;;;;;4998071;28;20089;-62
2022/02/21 07:49:11;;;;;;;29.35;5.85;;;7.00;97.20;;;;;;4997979;28;20046;-62
2022/02/21 07:51:37;;;;;;;29.58;4.95;;;7.00;97.30;;;;;;4991045;28;20569;-63
2022/02/21 07:54:04;;;;;;;32.15;4.10;;;7.10;96.90;;;;;;4997261;28;20041;-63
2022/02/21 07:56:51;;;;;;;25.45;4.55;;;7.10;96.70;;;;;;5003909;28;20157;-62
2022/02/21 07:59:18;;;;;;;26.55;4.32;;;7.10;96.80;;;;;;4995183;28;20563;-62
2022/02/21 08:01:45;;;;;;;31.90;6.80;;;7.10;96.80;;;;;;5005679;28;20489;-63
2022/02/21 08:04:12;;;;;;;23.35;4.38;;;7.10;96.50;;;;;;4977679;28;20042;-63
2022/02/21 08:06:38;;;;;;;32.60;6.03;;;7.20;96.40;;;;;;5007990;28;20073;-63
2022/02/21 08:09:05;;;;;;;18.33;4.20;;;7.20;96.20;;;;;;4995455;28;20050;-64
2022/02/21 08:11:33;;;;;;;14.98;3.72;;;7.30;96.00;;;;;;4991772;28;20085;-62
2022/02/21 08:14:00;;;;;;;21.33;4.45;;;7.40;96.40;;;;;;4999824;28;20440;-63
2022/02/21 08:16:27;;;;;;;28.35;4.68;;;7.40;96.00;;;;;;4988472;28;20088;-63
2022/02/21 08:18:54;;;;;;;23.55;3.97;;;7.40;95.60;;;;;;4998557;28;20081;-64
2022/02/21 08:21:21;;;;;;;33.80;5.22;;;7.40;96.00;;;;;;4990866;28;20140;-63
2022/02/21 08:23:47;;;;;;;22.08;5.97;;;7.50;96.00;;;;;;4993952;28;20050;-64
2022/02/21 08:26:14;;;;;;;31.30;5.72;;;7.50;95.90;;;;;;4995633;28;20042;-62
2022/02/21 08:28:41;;;;;;;23.10;6.35;;;7.60;95.70;;;;;;4992146;28;20142;-62
2022/02/21 08:31:08;;;;;;;23.70;5.95;;;7.60;95.60;;;;;;5001005;28;20233;-63
2022/02/21 08:33:34;;;;;;;20.95;4.88;;;7.60;95.50;;;;;;5005054;28;20137;-64
2022/02/21 08:36:01;;;;;;;29.00;5.15;;;7.70;95.30;;;;;;4998644;28;20082;-63
2022/02/21 08:38:28;;;;;;;31.70;5.78;;;7.80;95.70;;;;;;5006542;28;20141;-63
2022/02/21 08:40:55;;;;;;;20.13;3.75;;;7.80;95.30;;;;;;4996907;28;20081;-61
2022/02/21 08:43:28;;;;;;;21.38;5.15;;;7.80;95.50;;;;;;4987634;28;20497;-63
2022/02/21 08:45:58;;;;;;;22.63;5.40;;;7.90;95.30;;;;;;5004620;28;20046;-63
2022/02/21 08:48:44;;;;;;;21.80;4.10;;;7.90;95.00;;;;;;5005254;28;20043;-62
2022/02/21 08:51:11;;;;;;;36.20;5.60;;;8.00;95.30;;;;;;4997258;28;20050;-63
2022/02/21 08:53:38;;;;;;;27.73;4.20;;;8.00;95.10;;;;;;5009038;28;20513;-68
2022/02/21 08:56:05;;;;;;;19.05;4.03;;;8.10;94.80;;;;;;4999922;28;20045;-63
2022/02/21 08:58:32;;;;;;;25.65;4.35;;;8.20;94.60;;;;;;5011480;28;20046;-64
2022/02/21 09:00:59;;;;;;;18.80;4.43;;;8.20;94.60;;;;;;5004155;28;20468;-62
2022/02/21 09:03:26;;;;;;;32.83;5.38;;;8.30;94.30;;;;;;4974604;28;20050;-63
2022/02/21 09:05:53;;;;;;;21.13;3.85;;;8.30;94.60;;;;;;4986663;28;20073;-63
2022/02/21 09:08:20;;;;;;;22.15;5.60;;;8.30;94.40;;;;;;4990286;28;20142;-63
2022/02/21 09:10:47;;;;;;;27.52;4.28;;;8.30;94.50;;;;;;5000346;28;20057;-64
2022/02/21 09:13:14;;;;;;;18.10;4.45;;;8.30;94.60;;;;;;4991740;28;20509;-64
2022/02/21 09:15:41;;;;;;;21.00;6.47;;;8.30;94.50;;;;;;4996373;28;20497;-64
2022/02/21 09:18:08;;;;;;;23.55;4.25;;;8.30;94.80;;;;;;5006851;28;20100;-64
2022/02/21 09:20:38;;;;;;;20.20;3.92;;;8.30;94.50;;;;;;5006034;28;20070;-63
2022/02/21 09:23:05;;;;;;;21.52;4.85;;;8.30;94.90;;;;;;4996195;28;20046;-63
2022/02/21 09:25:35;;;;;;;32.30;4.75;;;8.30;95.00;;;;;;4979762;28;20092;-64
2022/02/21 09:28:02;;;;;;;24.77;6.00;;;8.40;94.70;;;;;;4998337;28;20165;-63
2022/02/21 09:30:28;;;;;;;16.83;3.97;;;8.40;94.90;;;;;;4994287;28;20050;-63
2022/02/21 09:32:55;;;;;;;27.35;5.07;;;8.40;94.60;;;;;;5000851;28;20563;-63
2022/02/21 09:35:24;;;;;;;15.63;3.65;;;8.50;94.80;;;;;;4993084;28;20077;-64
2022/02/21 09:37:51;;;;;;;31.92;4.38;;;8.50;94.40;;;;;;5002578;28;20082;-63
2022/02/21 09:40:19;;;;;;;22.38;5.43;;;8.60;94.90;;;;;;4992645;28;20054;-63
2022/02/21 09:42:47;;;;;;;14.63;2.20;;;8.60;95.10;;;;;;5002672;28;20073;-63
2022/02/21 09:45:19;;;;;;;22.12;3.42;;;8.70;94.60;;;;;;4841534;28;10000915;-62
2022/02/21 09:47:46;;;;;;;13.57;2.90;;;8.70;94.90;;;;;;4997122;28;20256;-62
2022/02/21 09:50:33;;;;;;;13.95;3.72;;;8.80;94.50;;;;;;5008372;28;20050;-63
2022/02/21 09:53:04;;;;;;;13.13;2.95;;;8.80;94.30;;;;;;4998624;28;20045;-63
2022/02/21 09:55:32;;;;;;;24.17;3.85;;;8.90;94.40;;;;;;5010202;28;20501;-65
2022/02/21 09:57:59;;;;;;;18.65;4.22;;;8.90;94.50;;;;;;4998184;28;20104;-63
2022/02/21 10:00:27;;;;;;;16.80;3.05;;;8.90;94.30;;;;;;5010856;28;20787;-63
2022/02/21 10:02:55;;;;;;;12.65;2.80;;;8.90;94.30;;;;;;4997262;28;20086;-63
2022/02/21 10:05:25;;;;;;;20.42;4.95;;;9.00;94.20;;;;;;5010878;28;20053;-63
2022/02/21 10:07:52;;;;;;;14.82;3.42;;;9.10;94.50;;;;;;4998008;28;20057;-62
2022/02/21 10:10:21;;;;;;;15.50;3.28;;;9.20;94.30;;;;;;5010583;28;20054;-63
2022/02/21 10:12:49;;;;;;;24.17;6.90;;;9.30;94.20;;;;;;4999755;28;20081;-63
2022/02/21 10:15:21;;;;;;;11.43;3.40;;;9.40;94.20;;;;;;4997371;28;20422;-63
2022/02/21 10:17:47;;;;;;;18.35;3.42;;;9.40;94.10;;;;;;4999908;28;20088;-63
2022/02/21 10:20:15;;;;;;;19.88;3.42;;;9.40;94.00;;;;;;4993663;28;20101;-62
2022/02/21 10:23:02;;;;;;;19.25;4.88;;;9.40;94.00;;;;;;4997638;28;20050;-63
2022/02/21 10:25:32;;;;;;;27.25;5.05;;;9.30;93.90;;;;;;4991797;28;20519;-62
2022/02/21 10:27:59;;;;;;;16.48;3.38;;;9.30;94.20;;;;;;4997223;28;20119;-63
2022/02/21 10:30:26;;;;;;;14.32;3.85;;;9.30;94.10;;;;;;4995016;28;20074;-63
2022/02/21 10:33:11;;;;;;;15.90;3.72;;;9.30;94.00;;;;;;4997301;28;20045;-63
2022/02/21 10:35:38;;;;;;;10.68;2.83;;;9.30;93.80;;;;;;4994718;28;20078;-63
2022/02/21 10:38:05;;;;;;;16.75;3.00;;;9.30;94.00;;;;;;4994743;28;20073;-63
2022/02/21 10:40:37;;;;;;;14.25;2.85;;;9.30;94.20;;;;;;4996768;28;20043;-64
2022/02/21 10:43:05;;;;;;;14.85;3.45;;;9.30;94.10;;;;;;4993271;28;20080;-63
2022/02/21 10:45:34;;;;;;;16.92;4.07;;;9.40;94.30;;;;;;4996148;28;20486;-63
2022/02/21 10:48:01;;;;;;;15.30;2.85;;;9.40;94.30;;;;;;4992502;28;20046;-62
2022/02/21 10:50:29;;;;;;;15.63;3.22;;;9.40;94.50;;;;;;4999968;28;20046;-64
2022/02/21 10:52:55;;;;;;;17.08;3.45;;;9.40;94.30;;;;;;4993854;28;20193;-64
2022/02/21 10:55:31;;;;;;;12.68;2.50;;;9.40;94.30;;;;;;5001199;28;20101;-64
2022/02/21 10:57:58;;;;;;;17.95;4.38;;;9.50;94.40;;;;;;4990217;28;20540;-63
2022/02/21 11:00:24;;;;;;;15.63;2.67;;;9.50;94.40;;;;;;5000917;28;20152;-63
2022/02/21 11:02:51;;;;;;;20.30;3.05;;;9.50;94.30;;;;;;4990717;28;20050;-63
2022/02/21 11:05:18;;;;;;;26.60;3.97;;;9.60;94.50;;;;;;5001172;28;20046;-63
2022/02/21 11:07:46;;;;;;;20.73;4.05;;;9.60;94.50;;;;;;4988711;28;20462;-63
2022/02/21 11:10:13;;;;;;;19.40;3.13;;;9.60;94.60;;;;;;5000757;28;20084;-64
2022/02/21 11:12:44;;;;;;;12.63;2.97;;;9.70;94.50;;;;;;4988811;28;20078;-63
2022/02/21 11:15:11;;;;;;;14.25;2.70;;;9.70;94.60;;;;;;5002983;28;20052;-65
2022/02/21 11:17:39;;;;;;;22.25;4.95;;;9.70;94.60;;;;;;4990153;28;20088;-64
2022/02/21 11:20:07;;;;;;;11.27;2.97;;;9.70;94.80;;;;;;5000524;28;20049;-64
2022/02/21 11:22:35;;;;;;;14.75;2.72;;;9.70;94.70;;;;;;4992914;28;20050;-64
2022/02/21 11:25:25;;;;;;;12.90;3.45;;;9.80;94.60;;;;;;4998453;28;20095;-61
2022/02/21 11:28:06;;;;;;;14.82;3.22;;;9.80;95.10;;;;;;4988805;28;20105;-63
2022/02/21 11:30:33;;;;;;;15.10;3.20;;;9.80;94.80;;;;;;5004873;28;20049;-64
2022/02/21 11:33:11;;;;;;;11.88;4.63;;;9.90;94.80;;;;;;4989568;28;20721;-63
2022/02/21 11:35:58;;;;;;;15.00;2.92;;;9.90;95.00;;;;;;5000747;28;20054;-62
2022/02/21 11:38:28;;;;;;;28.60;4.05;;;9.90;94.90;;;;;;4989823;28;20073;-61
2022/02/21 11:40:59;;;;;;;14.32;2.83;;;9.90;95.00;;;;;;5001699;28;20065;-63
2022/02/21 11:43:31;;;;;;;9.75;2.38;;;9.90;95.20;;;;;;4988443;28;20134;-63
2022/02/21 11:46:00;;;;;;;14.30;2.33;;;9.90;95.00;;;;;;5003574;28;20090;-63
2022/02/21 11:48:27;;;;;;;19.88;3.42;;;10.00;95.10;;;;;;4989023;28;20547;-63
2022/02/21 11:50:58;;;;;;;9.68;3.17;;;10.00;94.90;;;;;;4997171;28;20081;-64
2022/02/21 11:53:30;;;;;;;17.95;2.33;;;10.10;95.30;;;;;;4991160;28;20498;-64
2022/02/21 11:55:58;;;;;;;11.32;2.80;;;10.10;95.00;;;;;;4997325;28;20061;-64
2022/02/21 11:58:26;;;;;;;16.17;2.92;;;10.10;95.10;;;;;;4992922;28;20082;-64
2022/02/21 12:00:54;;;;;;;14.85;3.22;;;10.10;95.00;;;;;;4995140;28;20615;-64
2022/02/21 12:03:26;;;;;;;18.98;4.90;;;10.10;95.30;;;;;;4994511;28;20112;-63
2022/02/21 12:05:59;;;;;;;15.10;3.25;;;10.20;95.20;;;;;;4994082;28;20054;-63
2022/02/21 12:08:46;;;;;;;12.43;2.75;;;10.20;95.20;;;;;;4992984;28;20049;-64
2022/02/21 12:11:14;;;;;;;19.25;3.35;;;10.20;95.50;;;;;;4994979;28;20057;-63
2022/02/21 12:13:50;;;;;;;7.40;2.00;;;10.20;95.20;;;;;;4995546;28;20078;-64
2022/02/21 12:16:20;;;;;;;14.65;3.40;;;10.10;95.40;;;;;;5003893;28;21100;-63
2022/02/21 12:18:51;;;;;;;18.65;3.20;;;10.20;95.70;;;;;;4995698;28;20062;-65
2022/02/21 12:21:24;;;;;;;10.05;2.72;;;10.20;95.50;;;;;;4975709;28;20116;-62
2022/02/21 12:24:00;;;;;;;19.25;3.33;;;10.20;95.60;;;;;;4979524;28;20089;-63
2022/02/21 12:26:30;;;;;;;17.45;3.35;;;10.20;95.50;;;;;;4994659;28;20043;-64
2022/02/21 12:29:24;;;;;;;13.80;2.83;;;10.20;95.30;;;;;;5000958;28;20046;-62
2022/02/21 12:32:11;;;;;;;9.77;2.33;;;10.30;95.50;;;;;;4998470;28;20459;-64
2022/02/21 12:34:39;;;;;;;16.42;2.72;;;10.30;95.90;;;;;;4996452;28;20089;-62
2022/02/21 12:37:07;;;;;;;18.23;3.10;;;10.30;96.10;;;;;;4998792;28;20073;-64
2022/02/21 12:39:43;;;;;;;15.45;3.03;;;10.30;96.10;;;;;;4981503;28;20050;-64
2022/02/21 12:42:10;;;;;;;17.25;3.20;;;10.30;96.40;;;;;;4997918;28;20080;-63
2022/02/21 12:44:36;;;;;;;15.05;3.33;;;10.20;97.30;;;;;;5001121;28;20138;-65
2022/02/21 12:47:07;;;;;;;11.15;2.83;;;10.10;98.00;;;;;;4999700;28;20131;-63
2022/02/21 12:49:35;;;;;;;9.43;2.05;;;10.00;97.80;;;;;;5001420;28;20371;-64
2022/02/21 12:52:13;;;;;;;11.75;2.40;;;10.00;98.40;;;;;;4993880;28;20066;-63